sensor_id;sensor_type;location;lat;lon;timestamp;P1;durP1;ratioP1;P2;durP2;ratioP2
5684;SDS011;2865;53.114;9.130;2022-10-13T00:00:39;7.43;;;5.40;;
5684;SDS011;2865;53.114;9.130;2022-10-13T00:03:03;8.77;;;6.10;;
5684;SDS011;2865;53.114;9.130;2022-10-13T00:05:29;10.13;;;5.90;;
5684;SDS011;2865;53.114;9.130;2022-10-13T00:07:54;9.00;;;6.43;;
5684;SDS011;2865;53.114;9.130;2022-10-13T00:10:19;7.40;;;5.73;;
5684;SDS011;2865;53.114;9.130;2022-10-13T00:12:44;9.83;;;6.27;;
5684;SDS011;2865;53.114;9.130;2022-10-13T00:15:10;6.67;;;5.97;;
5684;SDS011;2865;53.114;9.130;2022-10-13T00:17:35;10.50;;;5.90;;
5684;SDS011;2865;53.114;9.130;2022-10-13T00:20:01;13.33;;;6.33;;
5684;SDS011;2865;53.114;9.130;2022-10-13T00:22:26;6.63;;;5.87;;
5684;SDS011;2865;53.114;9.130;2022-10-13T00:24:51;7.77;;;5.73;;
5684;SDS011;2865;53.114;9.130;2022-10-13T00:27:16;8.97;;;6.10;;
5684;SDS011;2865;53.114;9.130;2022-10-13T00:29:42;9.10;;;5.80;;
5684;SDS011;2865;53.114;9.130;2022-10-13T00:32:07;17.50;;;5.93;;
5684;SDS011;2865;53.114;9.130;2022-10-13T00:34:32;9.60;;;6.93;;
5684;SDS011;2865;53.114;9.130;2022-10-13T00:36:57;11.80;;;6.03;;
5684;SDS011;2865;53.114;9.130;2022-10-13T00:39:23;9.70;;;6.33;;
5684;SDS011;2865;53.114;9.130;2022-10-13T00:41:48;6.13;;;5.57;;
5684;SDS011;2865;53.114;9.130;2022-10-13T00:46:51;8.53;;;6.03;;
5684;SDS011;2865;53.114;9.130;2022-10-13T00:49:16;8.10;;;6.73;;
5684;SDS011;2865;53.114;9.130;2022-10-13T00:51:42;8.47;;;6.60;;
5684;SDS011;2865;53.114;9.130;2022-10-13T00:54:07;9.10;;;7.03;;
5684;SDS011;2865;53.114;9.130;2022-10-13T00:56:32;11.47;;;6.10;;
5684;SDS011;2865;53.114;9.130;2022-10-13T00:58:57;9.53;;;6.43;;
5684;SDS011;2865;53.114;9.130;2022-10-13T01:01:22;8.33;;;5.70;;
5684;SDS011;2865;53.114;9.130;2022-10-13T01:03:48;8.10;;;5.53;;
5684;SDS011;2865;53.114;9.130;2022-10-13T01:06:13;9.40;;;6.70;;
5684;SDS011;2865;53.114;9.130;2022-10-13T01:08:38;9.80;;;6.33;;
5684;SDS011;2865;53.114;9.130;2022-10-13T01:11:42;12.97;;;6.80;;
5684;SDS011;2865;53.114;9.130;2022-10-13T01:16:36;10.70;;;7.00;;
5684;SDS011;2865;53.114;9.130;2022-10-13T01:19:06;10.47;;;5.60;;
5684;SDS011;2865;53.114;9.130;2022-10-13T01:21:46;8.87;;;6.57;;
5684;SDS011;2865;53.114;9.130;2022-10-13T01:24:22;6.93;;;6.10;;
5684;SDS011;2865;53.114;9.130;2022-10-13T01:27:09;8.17;;;7.03;;
5684;SDS011;2865;53.114;9.130;2022-10-13T01:30:02;7.30;;;6.47;;
5684;SDS011;2865;53.114;9.130;2022-10-13T01:32:42;8.80;;;6.90;;
5684;SDS011;2865;53.114;9.130;2022-10-13T01:35:41;8.57;;;6.40;;
5684;SDS011;2865;53.114;9.130;2022-10-13T01:40:41;8.37;;;6.00;;
5684;SDS011;2865;53.114;9.130;2022-10-13T01:43:18;9.33;;;6.20;;
5684;SDS011;2865;53.114;9.130;2022-10-13T01:45:49;12.83;;;6.20;;
5684;SDS011;2865;53.114;9.130;2022-10-13T01:48:17;8.23;;;6.77;;
5684;SDS011;2865;53.114;9.130;2022-10-13T01:50:43;6.40;;;5.77;;
5684;SDS011;2865;53.114;9.130;2022-10-13T01:53:08;7.57;;;5.97;;
5684;SDS011;2865;53.114;9.130;2022-10-13T01:55:33;12.30;;;6.60;;
5684;SDS011;2865;53.114;9.130;2022-10-13T01:57:58;8.03;;;7.20;;
5684;SDS011;2865;53.114;9.130;2022-10-13T02:00:24;6.80;;;6.10;;
5684;SDS011;2865;53.114;9.130;2022-10-13T02:02:53;9.43;;;6.80;;
5684;SDS011;2865;53.114;9.130;2022-10-13T02:05:26;9.80;;;6.87;;
5684;SDS011;2865;53.114;9.130;2022-10-13T02:08:00;9.83;;;7.20;;
5684;SDS011;2865;53.114;9.130;2022-10-13T02:10:26;13.00;;;7.43;;
5684;SDS011;2865;53.114;9.130;2022-10-13T02:12:55;13.80;;;6.90;;
5684;SDS011;2865;53.114;9.130;2022-10-13T02:15:21;9.63;;;6.73;;
5684;SDS011;2865;53.114;9.130;2022-10-13T02:17:46;9.43;;;6.63;;
5684;SDS011;2865;53.114;9.130;2022-10-13T02:20:11;7.10;;;6.10;;
5684;SDS011;2865;53.114;9.130;2022-10-13T02:22:37;9.97;;;6.40;;
5684;SDS011;2865;53.114;9.130;2022-10-13T02:25:01;10.20;;;7.50;;
5684;SDS011;2865;53.114;9.130;2022-10-13T02:27:27;10.33;;;6.40;;
5684;SDS011;2865;53.114;9.130;2022-10-13T02:29:53;14.33;;;7.20;;
5684;SDS011;2865;53.114;9.130;2022-10-13T02:32:18;7.67;;;6.70;;
5684;SDS011;2865;53.114;9.130;2022-10-13T02:34:43;9.33;;;6.73;;
5684;SDS011;2865;53.114;9.130;2022-10-13T02:37:08;7.37;;;6.57;;
5684;SDS011;2865;53.114;9.130;2022-10-13T02:39:33;8.47;;;6.87;;
5684;SDS011;2865;53.114;9.130;2022-10-13T02:41:58;8.93;;;6.97;;
5684;SDS011;2865;53.114;9.130;2022-10-13T02:44:24;10.57;;;7.97;;
5684;SDS011;2865;53.114;9.130;2022-10-13T02:46:49;12.27;;;7.10;;
5684;SDS011;2865;53.114;9.130;2022-10-13T02:49:14;8.63;;;6.90;;
5684;SDS011;2865;53.114;9.130;2022-10-13T02:51:40;10.73;;;7.60;;
5684;SDS011;2865;53.114;9.130;2022-10-13T02:54:05;7.63;;;6.57;;
5684;SDS011;2865;53.114;9.130;2022-10-13T02:56:30;17.10;;;7.47;;
5684;SDS011;2865;53.114;9.130;2022-10-13T02:58:55;12.67;;;7.57;;
5684;SDS011;2865;53.114;9.130;2022-10-13T03:01:21;9.87;;;7.93;;
5684;SDS011;2865;53.114;9.130;2022-10-13T03:03:46;8.50;;;7.07;;
5684;SDS011;2865;53.114;9.130;2022-10-13T03:06:11;9.53;;;8.07;;
5684;SDS011;2865;53.114;9.130;2022-10-13T03:08:36;9.90;;;7.23;;
5684;SDS011;2865;53.114;9.130;2022-10-13T03:11:02;8.17;;;7.10;;
5684;SDS011;2865;53.114;9.130;2022-10-13T03:13:27;12.53;;;8.30;;
5684;SDS011;2865;53.114;9.130;2022-10-13T03:15:52;8.43;;;7.63;;
5684;SDS011;2865;53.114;9.130;2022-10-13T03:18:17;11.97;;;6.63;;
5684;SDS011;2865;53.114;9.130;2022-10-13T03:20:44;7.60;;;6.80;;
5684;SDS011;2865;53.114;9.130;2022-10-13T03:23:09;9.90;;;6.90;;
5684;SDS011;2865;53.114;9.130;2022-10-13T03:25:35;11.30;;;7.33;;
5684;SDS011;2865;53.114;9.130;2022-10-13T03:27:59;8.83;;;7.33;;
5684;SDS011;2865;53.114;9.130;2022-10-13T03:30:25;12.10;;;7.37;;
5684;SDS011;2865;53.114;9.130;2022-10-13T03:32:50;9.17;;;7.40;;
5684;SDS011;2865;53.114;9.130;2022-10-13T03:35:15;11.40;;;7.30;;
5684;SDS011;2865;53.114;9.130;2022-10-13T03:37:41;10.00;;;7.80;;
5684;SDS011;2865;53.114;9.130;2022-10-13T03:40:06;10.87;;;7.10;;
5684;SDS011;2865;53.114;9.130;2022-10-13T03:42:34;11.40;;;7.53;;
5684;SDS011;2865;53.114;9.130;2022-10-13T03:44:58;9.87;;;7.90;;
5684;SDS011;2865;53.114;9.130;2022-10-13T03:47:23;15.87;;;7.83;;
5684;SDS011;2865;53.114;9.130;2022-10-13T03:49:48;9.20;;;7.70;;
5684;SDS011;2865;53.114;9.130;2022-10-13T03:52:13;9.57;;;7.30;;
5684;SDS011;2865;53.114;9.130;2022-10-13T03:54:39;8.90;;;7.40;;
5684;SDS011;2865;53.114;9.130;2022-10-13T03:57:04;14.20;;;7.27;;
5684;SDS011;2865;53.114;9.130;2022-10-13T03:59:29;11.53;;;7.80;;
5684;SDS011;2865;53.114;9.130;2022-10-13T04:01:54;12.10;;;8.10;;
5684;SDS011;2865;53.114;9.130;2022-10-13T04:04:20;9.13;;;7.20;;
5684;SDS011;2865;53.114;9.130;2022-10-13T04:06:45;13.80;;;7.80;;
5684;SDS011;2865;53.114;9.130;2022-10-13T04:09:10;11.80;;;8.57;;
5684;SDS011;2865;53.114;9.130;2022-10-13T04:11:35;11.40;;;7.90;;
5684;SDS011;2865;53.114;9.130;2022-10-13T04:14:01;10.67;;;7.97;;
5684;SDS011;2865;53.114;9.130;2022-10-13T04:16:27;11.20;;;7.77;;
5684;SDS011;2865;53.114;9.130;2022-10-13T04:18:53;9.63;;;8.30;;
5684;SDS011;2865;53.114;9.130;2022-10-13T04:21:17;21.03;;;9.30;;
5684;SDS011;2865;53.114;9.130;2022-10-13T04:23:43;12.20;;;9.50;;
5684;SDS011;2865;53.114;9.130;2022-10-13T04:26:13;10.57;;;8.40;;
5684;SDS011;2865;53.114;9.130;2022-10-13T04:28:33;9.67;;;8.33;;
5684;SDS011;2865;53.114;9.130;2022-10-13T04:30:58;17.70;;;8.90;;
5684;SDS011;2865;53.114;9.130;2022-10-13T04:33:24;10.83;;;8.17;;
5684;SDS011;2865;53.114;9.130;2022-10-13T04:35:49;13.80;;;8.83;;
5684;SDS011;2865;53.114;9.130;2022-10-13T04:38:14;11.60;;;8.17;;
5684;SDS011;2865;53.114;9.130;2022-10-13T04:40:40;15.80;;;9.50;;
5684;SDS011;2865;53.114;9.130;2022-10-13T04:43:05;12.23;;;9.50;;
5684;SDS011;2865;53.114;9.130;2022-10-13T04:45:30;13.70;;;8.90;;
5684;SDS011;2865;53.114;9.130;2022-10-13T04:47:55;11.10;;;9.17;;
5684;SDS011;2865;53.114;9.130;2022-10-13T04:50:21;14.70;;;9.60;;
5684;SDS011;2865;53.114;9.130;2022-10-13T04:52:46;12.60;;;9.40;;
5684;SDS011;2865;53.114;9.130;2022-10-13T04:55:11;17.70;;;8.77;;
5684;SDS011;2865;53.114;9.130;2022-10-13T04:57:36;18.80;;;9.70;;
5684;SDS011;2865;53.114;9.130;2022-10-13T05:00:02;14.93;;;9.87;;
5684;SDS011;2865;53.114;9.130;2022-10-13T05:02:27;19.97;;;10.30;;
5684;SDS011;2865;53.114;9.130;2022-10-13T05:04:52;13.20;;;8.40;;
5684;SDS011;2865;53.114;9.130;2022-10-13T05:07:18;15.43;;;10.63;;
5684;SDS011;2865;53.114;9.130;2022-10-13T05:09:43;11.20;;;9.87;;
5684;SDS011;2865;53.114;9.130;2022-10-13T05:12:08;18.13;;;9.07;;
5684;SDS011;2865;53.114;9.130;2022-10-13T05:14:35;12.27;;;10.73;;
5684;SDS011;2865;53.114;9.130;2022-10-13T05:17:00;13.83;;;10.20;;
5684;SDS011;2865;53.114;9.130;2022-10-13T05:19:25;11.73;;;9.63;;
5684;SDS011;2865;53.114;9.130;2022-10-13T05:21:51;16.13;;;11.17;;
5684;SDS011;2865;53.114;9.130;2022-10-13T05:24:16;18.83;;;10.60;;
5684;SDS011;2865;53.114;9.130;2022-10-13T05:26:42;16.73;;;10.10;;
5684;SDS011;2865;53.114;9.130;2022-10-13T05:29:07;13.13;;;10.63;;
5684;SDS011;2865;53.114;9.130;2022-10-13T05:31:34;12.40;;;9.37;;
5684;SDS011;2865;53.114;9.130;2022-10-13T05:33:58;18.30;;;11.37;;
5684;SDS011;2865;53.114;9.130;2022-10-13T05:36:24;17.23;;;11.67;;
5684;SDS011;2865;53.114;9.130;2022-10-13T05:38:50;21.43;;;12.47;;
5684;SDS011;2865;53.114;9.130;2022-10-13T05:41:14;16.43;;;10.73;;
5684;SDS011;2865;53.114;9.130;2022-10-13T05:43:40;21.47;;;12.20;;
5684;SDS011;2865;53.114;9.130;2022-10-13T05:46:05;21.67;;;12.90;;
5684;SDS011;2865;53.114;9.130;2022-10-13T05:48:30;20.00;;;12.23;;
5684;SDS011;2865;53.114;9.130;2022-10-13T05:50:56;22.63;;;12.37;;
5684;SDS011;2865;53.114;9.130;2022-10-13T05:53:21;15.00;;;11.13;;
5684;SDS011;2865;53.114;9.130;2022-10-13T05:55:46;12.77;;;10.57;;
5684;SDS011;2865;53.114;9.130;2022-10-13T05:58:11;24.77;;;12.50;;
5684;SDS011;2865;53.114;9.130;2022-10-13T06:00:37;15.07;;;11.40;;
5684;SDS011;2865;53.114;9.130;2022-10-13T06:03:05;16.07;;;11.60;;
5684;SDS011;2865;53.114;9.130;2022-10-13T06:05:28;20.40;;;12.13;;
5684;SDS011;2865;53.114;9.130;2022-10-13T06:07:53;19.60;;;11.30;;
5684;SDS011;2865;53.114;9.130;2022-10-13T06:10:20;16.40;;;11.73;;
5684;SDS011;2865;53.114;9.130;2022-10-13T06:12:45;14.20;;;11.10;;
5684;SDS011;2865;53.114;9.130;2022-10-13T06:15:10;19.47;;;11.77;;
5684;SDS011;2865;53.114;9.130;2022-10-13T06:17:36;15.53;;;12.40;;
5684;SDS011;2865;53.114;9.130;2022-10-13T06:20:01;16.73;;;11.80;;
5684;SDS011;2865;53.114;9.130;2022-10-13T06:22:26;14.30;;;11.23;;
5684;SDS011;2865;53.114;9.130;2022-10-13T06:24:51;17.70;;;11.90;;
5684;SDS011;2865;53.114;9.130;2022-10-13T06:27:17;15.70;;;11.10;;
5684;SDS011;2865;53.114;9.130;2022-10-13T06:29:42;21.97;;;12.93;;
5684;SDS011;2865;53.114;9.130;2022-10-13T06:32:07;19.90;;;11.27;;
5684;SDS011;2865;53.114;9.130;2022-10-13T06:34:32;25.63;;;13.33;;
5684;SDS011;2865;53.114;9.130;2022-10-13T06:36:58;21.97;;;11.30;;
5684;SDS011;2865;53.114;9.130;2022-10-13T06:39:23;16.93;;;12.30;;
5684;SDS011;2865;53.114;9.130;2022-10-13T06:41:48;18.00;;;11.90;;
5684;SDS011;2865;53.114;9.130;2022-10-13T06:44:14;18.60;;;12.43;;
5684;SDS011;2865;53.114;9.130;2022-10-13T06:46:39;17.63;;;11.63;;
5684;SDS011;2865;53.114;9.130;2022-10-13T06:49:04;18.00;;;11.47;;
5684;SDS011;2865;53.114;9.130;2022-10-13T06:51:29;21.10;;;11.33;;
5684;SDS011;2865;53.114;9.130;2022-10-13T06:53:55;17.10;;;11.70;;
5684;SDS011;2865;53.114;9.130;2022-10-13T06:56:20;16.70;;;11.20;;
5684;SDS011;2865;53.114;9.130;2022-10-13T06:58:45;15.97;;;11.60;;
5684;SDS011;2865;53.114;9.130;2022-10-13T07:01:11;17.63;;;12.40;;
5684;SDS011;2865;53.114;9.130;2022-10-13T07:03:36;18.37;;;11.20;;
5684;SDS011;2865;53.114;9.130;2022-10-13T07:06:02;19.97;;;12.00;;
5684;SDS011;2865;53.114;9.130;2022-10-13T07:08:26;17.87;;;11.30;;
5684;SDS011;2865;53.114;9.130;2022-10-13T07:10:52;12.03;;;10.53;;
5684;SDS011;2865;53.114;9.130;2022-10-13T07:13:17;15.70;;;11.13;;
5684;SDS011;2865;53.114;9.130;2022-10-13T07:15:42;18.03;;;12.30;;
5684;SDS011;2865;53.114;9.130;2022-10-13T07:18:07;18.93;;;11.70;;
5684;SDS011;2865;53.114;9.130;2022-10-13T07:20:33;17.47;;;11.30;;
5684;SDS011;2865;53.114;9.130;2022-10-13T07:22:58;17.93;;;12.23;;
5684;SDS011;2865;53.114;9.130;2022-10-13T07:25:23;16.67;;;11.07;;
5684;SDS011;2865;53.114;9.130;2022-10-13T07:27:48;18.87;;;11.57;;
5684;SDS011;2865;53.114;9.130;2022-10-13T07:30:14;17.60;;;11.90;;
5684;SDS011;2865;53.114;9.130;2022-10-13T07:32:39;17.07;;;12.67;;
5684;SDS011;2865;53.114;9.130;2022-10-13T07:35:04;20.30;;;12.30;;
5684;SDS011;2865;53.114;9.130;2022-10-13T07:37:30;17.23;;;11.80;;
5684;SDS011;2865;53.114;9.130;2022-10-13T07:39:55;16.40;;;12.17;;
5684;SDS011;2865;53.114;9.130;2022-10-13T07:42:20;21.00;;;12.60;;
5684;SDS011;2865;53.114;9.130;2022-10-13T07:44:46;16.87;;;11.17;;
5684;SDS011;2865;53.114;9.130;2022-10-13T07:47:11;18.60;;;13.50;;
5684;SDS011;2865;53.114;9.130;2022-10-13T07:49:36;17.20;;;11.50;;
5684;SDS011;2865;53.114;9.130;2022-10-13T07:52:02;18.47;;;12.00;;
5684;SDS011;2865;53.114;9.130;2022-10-13T07:54:27;17.13;;;11.03;;
5684;SDS011;2865;53.114;9.130;2022-10-13T07:56:53;19.40;;;12.23;;
5684;SDS011;2865;53.114;9.130;2022-10-13T07:59:17;20.23;;;13.00;;
5684;SDS011;2865;53.114;9.130;2022-10-13T08:01:43;25.10;;;12.17;;
5684;SDS011;2865;53.114;9.130;2022-10-13T08:04:08;19.40;;;12.50;;
5684;SDS011;2865;53.114;9.130;2022-10-13T08:06:33;21.37;;;12.43;;
5684;SDS011;2865;53.114;9.130;2022-10-13T08:08:58;19.10;;;11.90;;
5684;SDS011;2865;53.114;9.130;2022-10-13T08:11:24;16.97;;;11.77;;
5684;SDS011;2865;53.114;9.130;2022-10-13T08:13:49;15.60;;;12.47;;
5684;SDS011;2865;53.114;9.130;2022-10-13T08:16:15;19.30;;;12.73;;
5684;SDS011;2865;53.114;9.130;2022-10-13T08:18:40;18.90;;;11.80;;
5684;SDS011;2865;53.114;9.130;2022-10-13T08:21:05;18.73;;;13.10;;
5684;SDS011;2865;53.114;9.130;2022-10-13T08:23:30;18.83;;;12.27;;
5684;SDS011;2865;53.114;9.130;2022-10-13T08:25:55;19.47;;;13.37;;
5684;SDS011;2865;53.114;9.130;2022-10-13T08:28:22;19.33;;;13.00;;
5684;SDS011;2865;53.114;9.130;2022-10-13T08:30:46;16.97;;;11.77;;
5684;SDS011;2865;53.114;9.130;2022-10-13T08:33:11;18.20;;;12.97;;
5684;SDS011;2865;53.114;9.130;2022-10-13T08:35:37;20.77;;;12.63;;
5684;SDS011;2865;53.114;9.130;2022-10-13T08:38:02;18.37;;;11.77;;
5684;SDS011;2865;53.114;9.130;2022-10-13T08:40:28;19.47;;;12.47;;
5684;SDS011;2865;53.114;9.130;2022-10-13T08:42:53;18.60;;;12.67;;
5684;SDS011;2865;53.114;9.130;2022-10-13T08:45:20;20.70;;;13.47;;
5684;SDS011;2865;53.114;9.130;2022-10-13T08:47:46;19.83;;;12.97;;
5684;SDS011;2865;53.114;9.130;2022-10-13T08:50:16;20.17;;;12.97;;
5684;SDS011;2865;53.114;9.130;2022-10-13T08:52:46;22.27;;;12.70;;
5684;SDS011;2865;53.114;9.130;2022-10-13T08:55:17;24.17;;;14.73;;
5684;SDS011;2865;53.114;9.130;2022-10-13T08:57:40;25.93;;;14.50;;
5684;SDS011;2865;53.114;9.130;2022-10-13T09:00:05;22.07;;;12.20;;
5684;SDS011;2865;53.114;9.130;2022-10-13T09:02:31;18.37;;;12.43;;
5684;SDS011;2865;53.114;9.130;2022-10-13T09:04:57;19.83;;;12.63;;
5684;SDS011;2865;53.114;9.130;2022-10-13T09:07:23;20.40;;;14.00;;
5684;SDS011;2865;53.114;9.130;2022-10-13T09:09:49;28.10;;;12.00;;
5684;SDS011;2865;53.114;9.130;2022-10-13T09:12:13;22.00;;;13.37;;
5684;SDS011;2865;53.114;9.130;2022-10-13T09:14:39;17.13;;;12.80;;
5684;SDS011;2865;53.114;9.130;2022-10-13T09:19:37;20.53;;;14.07;;
5684;SDS011;2865;53.114;9.130;2022-10-13T09:24:38;16.70;;;13.27;;
5684;SDS011;2865;53.114;9.130;2022-10-13T09:27:05;19.77;;;12.37;;
5684;SDS011;2865;53.114;9.130;2022-10-13T09:29:29;19.20;;;12.90;;
5684;SDS011;2865;53.114;9.130;2022-10-13T09:34:31;20.70;;;12.43;;
5684;SDS011;2865;53.114;9.130;2022-10-13T09:37:00;20.23;;;10.90;;
5684;SDS011;2865;53.114;9.130;2022-10-13T09:39:25;25.03;;;11.97;;
5684;SDS011;2865;53.114;9.130;2022-10-13T09:41:50;20.20;;;13.07;;
5684;SDS011;2865;53.114;9.130;2022-10-13T09:46:57;19.97;;;12.60;;
5684;SDS011;2865;53.114;9.130;2022-10-13T09:49:27;19.17;;;13.57;;
5684;SDS011;2865;53.114;9.130;2022-10-13T09:51:49;18.43;;;11.73;;
5684;SDS011;2865;53.114;9.130;2022-10-13T09:56:48;20.37;;;12.77;;
5684;SDS011;2865;53.114;9.130;2022-10-13T09:59:26;23.03;;;12.67;;
5684;SDS011;2865;53.114;9.130;2022-10-13T10:01:56;17.00;;;13.83;;
5684;SDS011;2865;53.114;9.130;2022-10-13T10:04:23;20.50;;;14.63;;
5684;SDS011;2865;53.114;9.130;2022-10-13T10:06:47;14.77;;;11.97;;
5684;SDS011;2865;53.114;9.130;2022-10-13T10:11:58;17.17;;;12.80;;
5684;SDS011;2865;53.114;9.130;2022-10-13T10:14:25;17.93;;;11.27;;
5684;SDS011;2865;53.114;9.130;2022-10-13T10:16:54;17.97;;;11.47;;
5684;SDS011;2865;53.114;9.130;2022-10-13T10:19:35;15.90;;;12.50;;
5684;SDS011;2865;53.114;9.130;2022-10-13T10:22:34;15.50;;;10.63;;
5684;SDS011;2865;53.114;9.130;2022-10-13T10:25:02;15.80;;;12.07;;
5684;SDS011;2865;53.114;9.130;2022-10-13T10:27:28;15.23;;;10.80;;
5684;SDS011;2865;53.114;9.130;2022-10-13T10:30:03;17.80;;;13.57;;
5684;SDS011;2865;53.114;9.130;2022-10-13T10:32:32;21.33;;;12.50;;
5684;SDS011;2865;53.114;9.130;2022-10-13T10:34:59;23.43;;;11.97;;
5684;SDS011;2865;53.114;9.130;2022-10-13T10:37:29;19.20;;;11.70;;
5684;SDS011;2865;53.114;9.130;2022-10-13T10:41:23;19.00;;;11.70;;
5684;SDS011;2865;53.114;9.130;2022-10-13T10:45:40;17.93;;;11.80;;
5684;SDS011;2865;53.114;9.130;2022-10-13T10:48:38;17.37;;;11.33;;
5684;SDS011;2865;53.114;9.130;2022-10-13T10:50:47;15.83;;;9.97;;
5684;SDS011;2865;53.114;9.130;2022-10-13T10:53:18;17.10;;;11.60;;
5684;SDS011;2865;53.114;9.130;2022-10-13T10:58:28;13.30;;;9.53;;
5684;SDS011;2865;53.114;9.130;2022-10-13T11:01:04;15.13;;;10.50;;
5684;SDS011;2865;53.114;9.130;2022-10-13T11:03:34;14.37;;;10.73;;
5684;SDS011;2865;53.114;9.130;2022-10-13T11:06:00;17.37;;;10.83;;
5684;SDS011;2865;53.114;9.130;2022-10-13T11:08:26;19.07;;;11.87;;
5684;SDS011;2865;53.114;9.130;2022-10-13T11:11:27;16.07;;;10.33;;
5684;SDS011;2865;53.114;9.130;2022-10-13T11:13:17;20.23;;;10.80;;
5684;SDS011;2865;53.114;9.130;2022-10-13T11:15:42;16.33;;;10.07;;
5684;SDS011;2865;53.114;9.130;2022-10-13T11:20:47;15.57;;;9.60;;
5684;SDS011;2865;53.114;9.130;2022-10-13T11:23:29;19.20;;;11.10;;
5684;SDS011;2865;53.114;9.130;2022-10-13T11:25:51;19.70;;;10.57;;
5684;SDS011;2865;53.114;9.130;2022-10-13T11:31:22;16.60;;;10.43;;
5684;SDS011;2865;53.114;9.130;2022-10-13T11:33:52;16.07;;;9.67;;
5684;SDS011;2865;53.114;9.130;2022-10-13T11:36:35;18.07;;;9.03;;
5684;SDS011;2865;53.114;9.130;2022-10-13T11:42:29;17.60;;;8.50;;
5684;SDS011;2865;53.114;9.130;2022-10-13T11:44:53;20.20;;;9.33;;
5684;SDS011;2865;53.114;9.130;2022-10-13T11:47:20;15.40;;;8.77;;
5684;SDS011;2865;53.114;9.130;2022-10-13T11:49:56;14.23;;;8.50;;
5684;SDS011;2865;53.114;9.130;2022-10-13T11:52:29;15.23;;;8.27;;
5684;SDS011;2865;53.114;9.130;2022-10-13T11:55:00;13.97;;;7.90;;
5684;SDS011;2865;53.114;9.130;2022-10-13T11:57:25;17.73;;;11.00;;
5684;SDS011;2865;53.114;9.130;2022-10-13T11:59:51;14.23;;;8.60;;
5684;SDS011;2865;53.114;9.130;2022-10-13T12:02:16;14.60;;;7.67;;
5684;SDS011;2865;53.114;9.130;2022-10-13T12:04:41;17.53;;;8.40;;
5684;SDS011;2865;53.114;9.130;2022-10-13T12:07:09;20.40;;;9.17;;
5684;SDS011;2865;53.114;9.130;2022-10-13T12:09:35;12.17;;;8.60;;
5684;SDS011;2865;53.114;9.130;2022-10-13T12:12:01;14.40;;;8.13;;
5684;SDS011;2865;53.114;9.130;2022-10-13T12:14:28;16.00;;;8.10;;
5684;SDS011;2865;53.114;9.130;2022-10-13T12:16:53;13.80;;;8.87;;
5684;SDS011;2865;53.114;9.130;2022-10-13T12:19:18;12.43;;;7.80;;
5684;SDS011;2865;53.114;9.130;2022-10-13T12:21:50;20.40;;;8.43;;
5684;SDS011;2865;53.114;9.130;2022-10-13T12:24:15;13.10;;;7.60;;
5684;SDS011;2865;53.114;9.130;2022-10-13T12:26:40;20.07;;;8.27;;
5684;SDS011;2865;53.114;9.130;2022-10-13T12:29:11;15.03;;;8.10;;
5684;SDS011;2865;53.114;9.130;2022-10-13T12:31:39;14.23;;;9.33;;
5684;SDS011;2865;53.114;9.130;2022-10-13T12:34:03;12.23;;;8.30;;
5684;SDS011;2865;53.114;9.130;2022-10-13T12:36:30;18.30;;;7.83;;
5684;SDS011;2865;53.114;9.130;2022-10-13T12:38:59;16.07;;;9.00;;
5684;SDS011;2865;53.114;9.130;2022-10-13T12:41:26;15.53;;;8.13;;
5684;SDS011;2865;53.114;9.130;2022-10-13T12:43:50;17.93;;;7.07;;
5684;SDS011;2865;53.114;9.130;2022-10-13T12:49:03;13.93;;;5.90;;
5684;SDS011;2865;53.114;9.130;2022-10-13T12:51:28;15.03;;;6.37;;
5684;SDS011;2865;53.114;9.130;2022-10-13T12:53:53;12.80;;;6.20;;
5684;SDS011;2865;53.114;9.130;2022-10-13T12:56:24;13.60;;;7.57;;
5684;SDS011;2865;53.114;9.130;2022-10-13T12:58:46;11.87;;;6.40;;
5684;SDS011;2865;53.114;9.130;2022-10-13T13:01:28;14.10;;;5.77;;
5684;SDS011;2865;53.114;9.130;2022-10-13T13:03:52;14.17;;;6.10;;
5684;SDS011;2865;53.114;9.130;2022-10-13T13:11:33;13.40;;;7.37;;
5684;SDS011;2865;53.114;9.130;2022-10-13T13:14:20;14.03;;;7.57;;
5684;SDS011;2865;53.114;9.130;2022-10-13T13:16:29;13.40;;;7.40;;
5684;SDS011;2865;53.114;9.130;2022-10-13T13:18:54;24.10;;;7.97;;
5684;SDS011;2865;53.114;9.130;2022-10-13T13:21:20;14.87;;;8.13;;
5684;SDS011;2865;53.114;9.130;2022-10-13T13:23:46;12.90;;;7.20;;
5684;SDS011;2865;53.114;9.130;2022-10-13T13:26:17;15.43;;;6.90;;
5684;SDS011;2865;53.114;9.130;2022-10-13T13:28:45;18.37;;;6.70;;
5684;SDS011;2865;53.114;9.130;2022-10-13T13:31:11;9.47;;;6.50;;
5684;SDS011;2865;53.114;9.130;2022-10-13T13:33:36;11.20;;;7.07;;
5684;SDS011;2865;53.114;9.130;2022-10-13T13:36:01;18.63;;;8.40;;
5684;SDS011;2865;53.114;9.130;2022-10-13T13:38:26;11.60;;;7.10;;
5684;SDS011;2865;53.114;9.130;2022-10-13T13:40:52;15.60;;;7.67;;
5684;SDS011;2865;53.114;9.130;2022-10-13T13:43:17;18.40;;;7.60;;
5684;SDS011;2865;53.114;9.130;2022-10-13T13:45:42;12.80;;;6.17;;
5684;SDS011;2865;53.114;9.130;2022-10-13T13:48:09;6.87;;;5.30;;
5684;SDS011;2865;53.114;9.130;2022-10-13T13:50:34;11.50;;;6.37;;
5684;SDS011;2865;53.114;9.130;2022-10-13T13:52:59;15.77;;;6.50;;
5684;SDS011;2865;53.114;9.130;2022-10-13T13:55:24;13.60;;;5.80;;
5684;SDS011;2865;53.114;9.130;2022-10-13T13:57:49;13.13;;;6.10;;
5684;SDS011;2865;53.114;9.130;2022-10-13T14:00:15;10.80;;;5.77;;
5684;SDS011;2865;53.114;9.130;2022-10-13T14:02:41;10.77;;;6.27;;
5684;SDS011;2865;53.114;9.130;2022-10-13T14:05:06;13.40;;;6.27;;
5684;SDS011;2865;53.114;9.130;2022-10-13T14:07:32;14.37;;;6.70;;
5684;SDS011;2865;53.114;9.130;2022-10-13T14:09:57;13.30;;;5.90;;
5684;SDS011;2865;53.114;9.130;2022-10-13T14:12:22;16.37;;;5.87;;
5684;SDS011;2865;53.114;9.130;2022-10-13T14:14:48;10.70;;;5.17;;
5684;SDS011;2865;53.114;9.130;2022-10-13T14:17:13;12.20;;;6.60;;
5684;SDS011;2865;53.114;9.130;2022-10-13T14:19:40;10.70;;;7.10;;
5684;SDS011;2865;53.114;9.130;2022-10-13T14:22:07;12.80;;;6.10;;
5684;SDS011;2865;53.114;9.130;2022-10-13T14:24:32;8.63;;;5.30;;
5684;SDS011;2865;53.114;9.130;2022-10-13T14:26:58;9.93;;;5.20;;
5684;SDS011;2865;53.114;9.130;2022-10-13T14:29:23;10.97;;;5.60;;
5684;SDS011;2865;53.114;9.130;2022-10-13T14:31:49;11.50;;;5.53;;
5684;SDS011;2865;53.114;9.130;2022-10-13T14:34:14;17.70;;;5.40;;
5684;SDS011;2865;53.114;9.130;2022-10-13T14:36:40;13.23;;;5.80;;
5684;SDS011;2865;53.114;9.130;2022-10-13T14:39:05;10.13;;;5.83;;
5684;SDS011;2865;53.114;9.130;2022-10-13T14:41:30;8.13;;;5.47;;
5684;SDS011;2865;53.114;9.130;2022-10-13T14:43:56;8.17;;;5.83;;
5684;SDS011;2865;53.114;9.130;2022-10-13T14:46:22;12.20;;;5.80;;
5684;SDS011;2865;53.114;9.130;2022-10-13T14:48:46;12.47;;;6.40;;
5684;SDS011;2865;53.114;9.130;2022-10-13T14:51:12;7.63;;;5.70;;
5684;SDS011;2865;53.114;9.130;2022-10-13T14:53:38;12.27;;;5.90;;
5684;SDS011;2865;53.114;9.130;2022-10-13T14:56:10;14.60;;;6.60;;
5684;SDS011;2865;53.114;9.130;2022-10-13T14:58:28;11.80;;;5.47;;
5684;SDS011;2865;53.114;9.130;2022-10-13T15:00:54;12.63;;;7.77;;
5684;SDS011;2865;53.114;9.130;2022-10-13T15:03:20;13.10;;;6.70;;
5684;SDS011;2865;53.114;9.130;2022-10-13T15:05:45;9.40;;;5.37;;
5684;SDS011;2865;53.114;9.130;2022-10-13T15:08:10;7.60;;;4.73;;
5684;SDS011;2865;53.114;9.130;2022-10-13T15:10:35;6.33;;;4.70;;
5684;SDS011;2865;53.114;9.130;2022-10-13T15:13:01;11.37;;;6.10;;
5684;SDS011;2865;53.114;9.130;2022-10-13T15:15:26;10.07;;;4.93;;
5684;SDS011;2865;53.114;9.130;2022-10-13T15:17:52;10.20;;;4.97;;
5684;SDS011;2865;53.114;9.130;2022-10-13T15:20:17;10.37;;;6.07;;
5684;SDS011;2865;53.114;9.130;2022-10-13T15:22:43;9.87;;;4.97;;
5684;SDS011;2865;53.114;9.130;2022-10-13T15:25:08;17.70;;;5.07;;
5684;SDS011;2865;53.114;9.130;2022-10-13T15:27:34;7.23;;;4.90;;
5684;SDS011;2865;53.114;9.130;2022-10-13T15:29:59;9.73;;;5.30;;
5684;SDS011;2865;53.114;9.130;2022-10-13T15:32:24;11.10;;;5.07;;
5684;SDS011;2865;53.114;9.130;2022-10-13T15:34:50;7.40;;;4.63;;
5684;SDS011;2865;53.114;9.130;2022-10-13T15:37:15;9.67;;;5.27;;
5684;SDS011;2865;53.114;9.130;2022-10-13T15:39:40;8.33;;;4.70;;
5684;SDS011;2865;53.114;9.130;2022-10-13T15:42:06;10.83;;;5.30;;